createdAt,value
2023-02-13T00:00:49.414Z,9.67
2023-02-13T00:03:17.799Z,12.47
2023-02-13T00:05:44.684Z,11.30
2023-02-13T00:08:11.360Z,10.60
2023-02-13T00:10:37.810Z,8.93
2023-02-13T00:13:06.388Z,9.93
2023-02-13T00:15:33.822Z,9.70
2023-02-13T00:18:00.827Z,8.70
2023-02-13T00:20:27.502Z,9.20
2023-02-13T00:22:58.457Z,9.17
2023-02-13T00:25:25.144Z,9.13
2023-02-13T00:27:54.284Z,8.83
2023-02-13T00:30:22.060Z,10.50
2023-02-13T00:32:48.943Z,8.20
2023-02-13T00:35:15.550Z,9.00
2023-02-13T00:37:42.228Z,8.47
2023-02-13T00:40:09.338Z,8.63
2023-02-13T00:42:36.515Z,8.47
2023-02-13T00:45:03.089Z,9.60
2023-02-13T00:47:29.748Z,8.87
2023-02-13T00:49:57.073Z,9.70
2023-02-13T00:52:23.772Z,9.23
2023-02-13T00:54:52.393Z,9.37
2023-02-13T00:57:19.425Z,8.50
2023-02-13T00:59:46.095Z,8.37
2023-02-13T01:02:15.070Z,9.43
2023-02-13T01:04:41.982Z,9.93
2023-02-13T01:07:08.680Z,9.50
2023-02-13T01:09:35.558Z,11.40
2023-02-13T01:12:02.105Z,11.80
2023-02-13T01:14:31.888Z,11.73
2023-02-13T01:16:58.870Z,10.40
2023-02-13T01:19:25.876Z,10.47
2023-02-13T01:21:52.442Z,11.30
2023-02-13T01:24:19.661Z,11.20
2023-02-13T01:26:48.078Z,9.17
2023-02-13T01:29:14.640Z,9.03
2023-02-13T01:31:41.400Z,8.70
2023-02-13T01:34:08.280Z,7.83
2023-02-13T01:36:34.807Z,8.63
2023-02-13T01:39:01.366Z,9.33
2023-02-13T01:41:29.005Z,7.73
2023-02-13T01:43:58.545Z,7.60
2023-02-13T01:46:29.872Z,7.00
2023-02-13T01:49:04.219Z,8.00
2023-02-13T01:51:34.617Z,7.50
2023-02-13T01:54:05.488Z,8.83
2023-02-13T01:56:37.738Z,8.10
2023-02-13T01:59:10.929Z,7.37
2023-02-13T02:01:37.944Z,5.90
2023-02-13T02:04:14.195Z,7.57
2023-02-13T02:06:44.650Z,7.67
2023-02-13T02:09:17.322Z,6.13
2023-02-13T02:11:49.166Z,7.33
2023-02-13T02:14:16.049Z,7.60
2023-02-13T02:16:43.053Z,6.93
2023-02-13T02:19:17.728Z,7.77
2023-02-13T02:21:55.191Z,7.20
2023-02-13T02:24:43.094Z,6.47
2023-02-13T02:27:16.039Z,6.77
2023-02-13T02:30:10.579Z,6.63
2023-02-13T02:32:40.092Z,5.83
2023-02-13T02:35:15.418Z,6.00
2023-02-13T02:37:56.982Z,6.97
2023-02-13T02:40:59.433Z,6.20
2023-02-13T02:43:55.265Z,7.73
2023-02-13T02:46:34.571Z,7.03
2023-02-13T02:49:38.264Z,7.20
2023-02-13T02:52:08.164Z,7.70
2023-02-13T02:55:01.851Z,7.13
2023-02-13T02:57:50.882Z,7.17
2023-02-13T03:00:39.252Z,6.90
2023-02-13T03:03:30.644Z,7.63
2023-02-13T03:06:16.230Z,6.30
2023-02-13T03:09:10.709Z,6.93
2023-02-13T03:11:56.263Z,6.40
2023-02-13T03:14:25.241Z,7.70
2023-02-13T03:17:10.398Z,7.50
2023-02-13T03:20:22.376Z,7.03
2023-02-13T03:23:00.426Z,7.20
2023-02-13T03:25:52.826Z,6.60
2023-02-13T03:28:52.007Z,6.97
2023-02-13T03:31:28.111Z,7.30
2023-02-13T03:33:56.844Z,6.40
2023-02-13T03:36:57.413Z,7.73
2023-02-13T03:39:38.230Z,6.90
2023-02-13T03:42:08.100Z,8.17
2023-02-13T03:44:41.867Z,7.30
2023-02-13T03:47:09.433Z,8.47
2023-02-13T03:49:58.544Z,7.20
2023-02-13T03:52:30.854Z,7.37
2023-02-13T03:55:21.645Z,7.87
2023-02-13T03:58:08.710Z,6.07
2023-02-13T04:00:41.545Z,6.97
2023-02-13T04:03:25.706Z,6.93
2023-02-13T04:05:56.429Z,7.63
2023-02-13T04:08:25.161Z,8.10
2023-02-13T04:11:02.054Z,8.07
2023-02-13T04:13:34.448Z,7.23
2023-02-13T04:16:11.310Z,7.80
2023-02-13T04:18:39.197Z,8.40
2023-02-13T04:21:07.250Z,8.33
2023-02-13T04:23:35.063Z,7.40
2023-02-13T04:26:04.646Z,9.20
2023-02-13T04:28:31.578Z,7.27
2023-02-13T04:30:58.967Z,8.67
2023-02-13T04:33:25.835Z,9.27
2023-02-13T04:35:52.410Z,8.30
2023-02-13T04:38:19.015Z,9.67
2023-02-13T04:40:45.620Z,9.50
2023-02-13T04:43:12.205Z,9.57
2023-02-13T04:45:38.894Z,10.13
2023-02-13T04:48:05.664Z,8.90
2023-02-13T04:50:32.191Z,15.83
2023-02-13T04:52:59.060Z,11.00
2023-02-13T04:55:27.549Z,10.40
2023-02-13T04:57:55.191Z,13.23
2023-02-13T05:00:23.750Z,11.97
2023-02-13T05:02:50.566Z,12.40
2023-02-13T05:05:17.326Z,14.13
2023-02-13T05:07:44.059Z,10.20
2023-02-13T05:10:12.147Z,11.30
2023-02-13T05:12:38.804Z,13.03
2023-02-13T05:15:06.612Z,12.23
2023-02-13T05:17:33.261Z,12.47
2023-02-13T05:20:00.405Z,12.70
2023-02-13T05:22:45.730Z,12.33
2023-02-13T05:25:12.208Z,14.00
2023-02-13T05:27:38.980Z,10.40
2023-02-13T05:30:06.321Z,11.00
2023-02-13T05:32:33.070Z,10.40
2023-02-13T05:35:02.116Z,12.23
2023-02-13T05:37:30.730Z,11.70
2023-02-13T05:39:58.553Z,11.37
2023-02-13T05:42:25.427Z,10.87
2023-02-13T05:44:51.951Z,12.80
2023-02-13T05:47:22.878Z,11.33
2023-02-13T05:49:49.590Z,10.43
2023-02-13T05:52:16.380Z,11.27
2023-02-13T05:54:43.054Z,11.03
2023-02-13T05:57:09.947Z,12.30
2023-02-13T05:59:36.522Z,12.47
2023-02-13T06:02:03.001Z,10.80
2023-02-13T06:04:30.672Z,10.30
2023-02-13T06:06:57.225Z,10.43
2023-02-13T06:09:23.809Z,11.00
2023-02-13T06:11:50.471Z,10.63
2023-02-13T06:14:17.145Z,11.03
2023-02-13T06:16:43.911Z,10.33
2023-02-13T06:19:11.879Z,11.10
2023-02-13T06:21:39.001Z,9.73
2023-02-13T06:24:08.312Z,11.70
2023-02-13T06:26:39.694Z,11.80
2023-02-13T06:29:06.927Z,10.47
2023-02-13T06:31:33.641Z,10.57
2023-02-13T06:34:00.676Z,10.00
2023-02-13T06:36:27.512Z,13.30
2023-02-13T06:38:53.998Z,12.70
2023-02-13T06:41:20.782Z,10.23
2023-02-13T06:43:47.389Z,9.57
2023-02-13T06:46:14.048Z,17.90
2023-02-13T06:48:40.857Z,10.23
2023-02-13T06:51:07.499Z,9.67
2023-02-13T06:53:34.488Z,9.90
2023-02-13T06:56:11.277Z,9.27
2023-02-13T06:58:40.217Z,10.20
2023-02-13T07:01:06.851Z,12.20
2023-02-13T07:03:36.075Z,12.67
2023-02-13T07:06:03.081Z,12.27
2023-02-13T07:08:30.848Z,11.93
2023-02-13T07:10:58.281Z,13.53
2023-02-13T07:13:25.098Z,14.20
2023-02-13T07:15:53.786Z,14.00
2023-02-13T07:18:20.496Z,13.57
2023-02-13T07:20:47.498Z,14.80
2023-02-13T07:23:16.375Z,13.43
2023-02-13T07:25:43.047Z,12.57
2023-02-13T07:28:10.213Z,11.20
2023-02-13T07:30:37.056Z,12.63
2023-02-13T07:33:07.289Z,12.57
2023-02-13T07:35:36.860Z,12.40
2023-02-13T07:38:05.673Z,11.67
2023-02-13T07:40:32.337Z,13.70
2023-02-13T07:43:01.386Z,16.57
2023-02-13T07:45:29.130Z,14.03
2023-02-13T07:47:56.616Z,12.20
2023-02-13T07:50:24.071Z,11.90
2023-02-13T07:52:58.326Z,11.30
2023-02-13T07:55:27.040Z,11.50
2023-02-13T07:57:53.635Z,11.47
2023-02-13T08:00:21.435Z,12.20
2023-02-13T08:02:49.608Z,14.50
2023-02-13T08:05:17.722Z,13.53
2023-02-13T08:07:44.777Z,12.20
2023-02-13T08:10:36.825Z,10.63
2023-02-13T08:13:03.564Z,12.27
2023-02-13T08:15:33.314Z,10.23
2023-02-13T08:18:00.614Z,18.10
2023-02-13T08:20:28.024Z,11.67
2023-02-13T08:22:55.226Z,14.63
2023-02-13T08:25:22.332Z,12.40
2023-02-13T08:27:48.969Z,10.70
2023-02-13T08:30:15.741Z,13.70
2023-02-13T08:32:53.820Z,12.10
2023-02-13T08:35:22.961Z,11.57
2023-02-13T08:37:49.660Z,11.27
2023-02-13T08:40:17.345Z,11.67
2023-02-13T08:42:45.467Z,11.43
2023-02-13T08:45:12.178Z,11.27
2023-02-13T08:47:40.170Z,13.10
2023-02-13T08:50:07.440Z,11.63
2023-02-13T08:52:36.067Z,11.40
2023-02-13T08:55:03.627Z,11.60
2023-02-13T08:57:31.376Z,11.10
2023-02-13T08:59:58.906Z,11.33
2023-02-13T09:02:25.574Z,11.90
2023-02-13T09:04:52.642Z,10.03
2023-02-13T09:07:19.303Z,10.90
2023-02-13T09:09:45.966Z,10.60
2023-02-13T09:12:13.962Z,12.87
2023-02-13T09:14:42.125Z,11.53
2023-02-13T09:17:09.884Z,12.73
2023-02-13T09:19:36.518Z,10.90
2023-02-13T09:22:03.236Z,10.67
2023-02-13T09:24:29.889Z,12.00
2023-02-13T09:26:56.819Z,12.27
2023-02-13T09:29:30.495Z,11.53
2023-02-13T09:31:57.436Z,12.40
2023-02-13T09:34:24.268Z,12.97
2023-02-13T09:36:54.795Z,14.00
2023-02-13T09:39:21.655Z,12.77
2023-02-13T09:41:50.229Z,11.93
2023-02-13T09:44:49.310Z,12.07
2023-02-13T09:47:29.617Z,11.50
2023-02-13T09:50:22.620Z,11.17
2023-02-13T09:52:52.088Z,12.43
2023-02-13T09:55:24.654Z,11.70
2023-02-13T09:58:09.345Z,12.03
2023-02-13T10:00:41.879Z,13.10
2023-02-13T10:03:32.875Z,11.50
2023-02-13T10:06:12.403Z,10.30
2023-02-13T10:08:49.123Z,12.60
2023-02-13T10:11:22.113Z,12.27
2023-02-13T10:14:02.399Z,13.80
2023-02-13T10:16:45.815Z,12.60
2023-02-13T10:19:44.608Z,12.53
2023-02-13T10:22:17.873Z,13.07
2023-02-13T10:24:59.358Z,13.33
2023-02-13T10:27:31.820Z,12.73
2023-02-13T10:30:26.369Z,12.87
2023-02-13T10:33:19.059Z,12.33
2023-02-13T10:36:07.684Z,12.30
2023-02-13T10:38:36.705Z,14.23
2023-02-13T10:41:06.520Z,14.23
2023-02-13T10:44:06.506Z,15.10
2023-02-13T10:47:12.224Z,14.70
2023-02-13T10:49:52.144Z,15.00
2023-02-13T10:52:27.917Z,13.63
2023-02-13T10:55:17.950Z,13.80
2023-02-13T10:57:57.724Z,14.10
2023-02-13T11:00:43.264Z,13.87
2023-02-13T11:03:20.849Z,17.13
2023-02-13T11:05:50.005Z,13.70
2023-02-13T11:08:23.540Z,14.77
2023-02-13T11:10:51.145Z,15.10
2023-02-13T11:13:25.014Z,15.47
2023-02-13T11:15:58.414Z,13.40
2023-02-13T11:18:28.057Z,14.40
2023-02-13T11:21:09.006Z,14.37
2023-02-13T11:23:39.547Z,13.50
2023-02-13T11:26:12.460Z,13.60
2023-02-13T11:28:47.993Z,14.93
2023-02-13T11:31:30.246Z,14.47
2023-02-13T11:33:59.143Z,16.60
2023-02-13T11:36:33.888Z,15.07
2023-02-13T11:39:06.750Z,14.40
2023-02-13T11:41:42.151Z,15.50
2023-02-13T11:44:30.349Z,14.73
2023-02-13T11:47:02.231Z,14.40
2023-02-13T11:49:40.689Z,14.10
2023-02-13T11:52:17.473Z,14.90
2023-02-13T11:54:45.726Z,16.40
2023-02-13T11:57:25.343Z,12.90
2023-02-13T11:59:54.372Z,14.50
2023-02-13T12:02:26.414Z,15.63
2023-02-13T12:05:15.181Z,14.77
2023-02-13T12:07:43.104Z,15.20
2023-02-13T12:10:37.259Z,16.33
2023-02-13T12:13:21.497Z,16.17
2023-02-13T12:15:57.970Z,14.60
2023-02-13T12:18:45.175Z,15.67
2023-02-13T12:21:29.520Z,16.03
2023-02-13T12:24:00.806Z,16.17
2023-02-13T12:26:49.105Z,15.20
2023-02-13T12:30:06.999Z,15.27
2023-02-13T12:33:07.707Z,13.07
2023-02-13T12:35:46.862Z,14.17
2023-02-13T12:38:38.935Z,13.97
2023-02-13T12:41:20.182Z,15.00
2023-02-13T12:44:11.071Z,13.20
2023-02-13T12:47:17.362Z,15.33
2023-02-13T12:49:50.342Z,17.07
2023-02-13T12:52:50.480Z,15.60
2023-02-13T12:55:57.186Z,15.40
2023-02-13T12:58:35.281Z,14.23
2023-02-13T13:01:30.449Z,14.57
2023-02-13T13:04:12.739Z,16.97
2023-02-13T13:06:51.325Z,16.20
2023-02-13T13:09:46.444Z,14.83
2023-02-13T13:13:17.388Z,15.73
2023-02-13T13:16:18.944Z,16.27
2023-02-13T13:18:58.748Z,14.93
2023-02-13T13:21:54.388Z,17.00
2023-02-13T13:24:28.094Z,14.80
2023-02-13T13:26:59.585Z,13.60
2023-02-13T13:29:45.210Z,14.30
2023-02-13T13:32:17.143Z,15.23
2023-02-13T13:34:46.304Z,15.90
2023-02-13T13:37:27.214Z,16.20
2023-02-13T13:39:53.783Z,16.00
2023-02-13T13:42:39.484Z,15.53
2023-02-13T13:45:50.603Z,16.50
2023-02-13T13:48:21.082Z,14.97
2023-02-13T13:50:48.284Z,15.67
2023-02-13T13:53:19.497Z,15.17
2023-02-13T13:56:13.617Z,15.83
2023-02-13T13:58:45.874Z,15.70
2023-02-13T14:01:15.670Z,15.40
2023-02-13T14:03:47.294Z,15.80
2023-02-13T14:06:17.202Z,15.60
2023-02-13T14:08:47.306Z,15.23
2023-02-13T14:11:35.222Z,16.07
2023-02-13T14:14:03.963Z,17.57
2023-02-13T14:17:02.563Z,15.23
2023-02-13T14:19:40.577Z,16.83
2023-02-13T14:22:30.317Z,16.30
2023-02-13T14:24:59.299Z,18.77
2023-02-13T14:27:40.883Z,16.90
2023-02-13T14:30:38.617Z,17.33
2023-02-13T14:33:24.464Z,17.37
2023-02-13T14:36:01.253Z,14.37
2023-02-13T14:38:28.433Z,14.87
2023-02-13T14:40:55.132Z,17.90
2023-02-13T14:43:26.609Z,17.73
2023-02-13T14:46:01.021Z,16.33
2023-02-13T14:48:57.950Z,14.93
2023-02-13T14:51:38.925Z,17.77
2023-02-13T14:54:34.604Z,16.97
2023-02-13T14:57:14.826Z,14.40
2023-02-13T14:59:45.224Z,17.07
2023-02-13T15:02:30.872Z,15.40
2023-02-13T15:05:01.636Z,16.87
2023-02-13T15:07:53.637Z,16.20
2023-02-13T15:10:34.639Z,14.57
2023-02-13T15:13:03.255Z,14.03
2023-02-13T15:15:35.150Z,13.83
2023-02-13T15:18:05.240Z,12.70
2023-02-13T15:20:41.176Z,12.00
2023-02-13T15:23:10.050Z,12.10
2023-02-13T15:25:39.279Z,19.30
2023-02-13T15:28:08.061Z,16.30
2023-02-13T15:30:38.435Z,13.37
2023-02-13T15:33:28.602Z,12.80
2023-02-13T15:36:05.835Z,12.67
2023-02-13T15:38:35.756Z,12.37
2023-02-13T15:41:05.505Z,14.30
2023-02-13T15:43:44.264Z,16.57
2023-02-13T15:46:36.316Z,14.13
2023-02-13T15:49:15.508Z,12.33
2023-02-13T15:51:42.812Z,11.10
2023-02-13T15:57:11.083Z,12.10
2023-02-13T15:59:39.151Z,11.37
2023-02-13T16:02:15.047Z,10.80
2023-02-13T16:04:42.810Z,14.73
2023-02-13T16:07:13.695Z,13.97
2023-02-13T16:09:40.508Z,14.30
2023-02-13T16:12:08.926Z,13.73
2023-02-13T16:14:38.322Z,17.07
2023-02-13T16:17:09.214Z,28.37
2023-02-13T16:19:48.673Z,18.87
2023-02-13T16:22:27.354Z,15.47
2023-02-13T16:25:03.723Z,14.67
2023-02-13T16:27:31.313Z,14.00
2023-02-13T16:30:04.281Z,16.90
2023-02-13T16:32:33.581Z,16.97
2023-02-13T16:35:29.517Z,17.50
2023-02-13T16:38:02.802Z,16.13
2023-02-13T16:40:43.221Z,14.93
2023-02-13T16:43:40.095Z,14.97
2023-02-13T16:46:25.795Z,18.50
2023-02-13T16:49:07.344Z,16.77
2023-02-13T16:51:43.408Z,16.50
2023-02-13T16:54:35.849Z,14.60
2023-02-13T16:57:18.694Z,18.90
2023-02-13T16:59:54.188Z,16.70
2023-02-13T17:02:33.107Z,15.50
2023-02-13T17:05:18.400Z,16.80
2023-02-13T17:07:51.295Z,17.43
2023-02-13T17:10:21.887Z,16.90
2023-02-13T17:13:14.391Z,15.27
2023-02-13T17:15:45.756Z,15.47
2023-02-13T17:18:22.956Z,14.97
2023-02-13T17:20:52.292Z,15.03
2023-02-13T17:23:22.639Z,15.53
2023-02-13T17:25:51.938Z,17.70
2023-02-13T17:28:24.611Z,17.30
2023-02-13T17:30:54.797Z,16.10
2023-02-13T17:33:24.972Z,16.80
2023-02-13T17:35:52.172Z,17.20
2023-02-13T17:38:22.045Z,14.63
2023-02-13T17:40:50.354Z,18.87
2023-02-13T17:43:27.103Z,20.00
2023-02-13T17:45:53.799Z,21.17
2023-02-13T17:48:21.758Z,23.03
2023-02-13T17:50:59.165Z,21.87
2023-02-13T17:53:32.371Z,19.30
2023-02-13T17:56:01.293Z,24.50
2023-02-13T17:58:28.354Z,22.90
2023-02-13T18:00:55.780Z,26.47
2023-02-13T18:03:24.529Z,23.00
2023-02-13T18:05:51.237Z,21.83
2023-02-13T18:08:20.293Z,22.10
2023-02-13T18:10:49.838Z,21.43
2023-02-13T18:13:18.118Z,24.10
2023-02-13T18:15:48.212Z,23.70
2023-02-13T18:18:18.110Z,23.00
2023-02-13T18:20:45.416Z,21.67
2023-02-13T18:23:13.604Z,22.13
2023-02-13T18:25:40.274Z,18.60
2023-02-13T18:28:06.793Z,22.80
2023-02-13T18:30:35.394Z,19.73
2023-02-13T18:33:05.503Z,19.67
2023-02-13T18:35:36.607Z,19.40
2023-02-13T18:38:05.909Z,21.87
2023-02-13T18:40:32.998Z,19.80
2023-02-13T18:43:02.551Z,22.60
2023-02-13T18:45:30.952Z,19.00
2023-02-13T18:47:58.236Z,21.00
2023-02-13T18:50:24.955Z,22.03
2023-02-13T18:52:52.496Z,21.10
2023-02-13T18:55:20.133Z,20.50
2023-02-13T18:57:52.335Z,18.73
2023-02-13T19:00:24.192Z,18.57
2023-02-13T19:02:51.051Z,24.63
2023-02-13T19:05:17.919Z,25.57
2023-02-13T19:07:46.453Z,23.70
2023-02-13T19:10:16.817Z,25.80
2023-02-13T19:12:45.735Z,23.60
2023-02-13T19:15:12.380Z,25.73
2023-02-13T19:17:39.493Z,25.20
2023-02-13T19:20:10.666Z,24.50
2023-02-13T19:22:44.244Z,26.50
2023-02-13T19:25:10.886Z,24.80
2023-02-13T19:27:41.206Z,24.80
2023-02-13T19:30:09.907Z,26.20
2023-02-13T19:32:38.194Z,24.67
2023-02-13T19:35:08.001Z,25.47
2023-02-13T19:37:43.387Z,27.47
2023-02-13T19:40:12.756Z,23.97
2023-02-13T19:42:41.404Z,24.80
2023-02-13T19:45:09.670Z,22.40
2023-02-13T19:47:37.528Z,25.17
2023-02-13T19:50:07.408Z,22.50
2023-02-13T19:52:35.185Z,24.60
2023-02-13T19:55:08.178Z,26.73
2023-02-13T19:57:37.354Z,26.37
2023-02-13T20:00:06.410Z,25.67
2023-02-13T20:02:34.186Z,26.80
2023-02-13T20:05:07.075Z,21.97
2023-02-13T20:07:41.449Z,23.30
2023-02-13T20:10:10.909Z,24.07
2023-02-13T20:12:38.542Z,24.77
2023-02-13T20:15:05.968Z,21.70
2023-02-13T20:17:35.447Z,23.00
2023-02-13T20:20:04.030Z,24.20
2023-02-13T20:22:38.398Z,22.30
2023-02-13T20:25:06.566Z,18.80
2023-02-13T20:30:11.926Z,16.53
2023-02-13T20:32:41.808Z,25.37
2023-02-13T20:35:08.741Z,25.20
2023-02-13T20:37:36.626Z,24.10
2023-02-13T20:40:03.868Z,25.67
2023-02-13T20:42:35.531Z,27.10
2023-02-13T20:45:03.234Z,21.37
2023-02-13T20:47:30.808Z,18.80
2023-02-13T20:50:01.505Z,18.40
2023-02-13T20:52:30.699Z,20.30
2023-02-13T20:55:01.133Z,20.30
2023-02-13T20:57:33.412Z,19.30
2023-02-13T21:00:06.523Z,17.90
2023-02-13T21:02:33.948Z,17.30
2023-02-13T21:05:01.160Z,18.77
2023-02-13T21:07:29.446Z,22.27
2023-02-13T21:10:00.159Z,18.97
2023-02-13T21:12:27.843Z,20.43
2023-02-13T21:14:56.661Z,22.37
2023-02-13T21:17:23.514Z,22.33
2023-02-13T21:19:51.643Z,21.23
2023-02-13T21:22:21.849Z,19.97
2023-02-13T21:24:52.896Z,18.80
2023-02-13T21:27:20.187Z,17.60
2023-02-13T21:29:49.848Z,17.00
2023-02-13T21:32:17.894Z,19.47
2023-02-13T21:34:44.539Z,19.67
2023-02-13T21:37:14.485Z,18.83
2023-02-13T21:39:41.895Z,18.53
2023-02-13T21:42:09.754Z,16.87
2023-02-13T21:44:37.265Z,19.67
2023-02-13T21:47:06.809Z,18.70
2023-02-13T21:49:35.587Z,16.97
2023-02-13T21:52:02.272Z,16.87
2023-02-13T21:54:29.624Z,18.80
2023-02-13T21:56:57.495Z,15.57
2023-02-13T21:59:26.086Z,16.67
2023-02-13T22:01:56.526Z,14.33
2023-02-13T22:04:24.784Z,13.93
2023-02-13T22:06:53.058Z,15.20
2023-02-13T22:09:22.043Z,16.80
2023-02-13T22:11:51.453Z,15.17
2023-02-13T22:14:18.583Z,17.30
2023-02-13T22:16:50.104Z,14.70
2023-02-13T22:19:20.281Z,17.53
2023-02-13T22:21:46.938Z,18.10
2023-02-13T22:24:13.782Z,17.57
2023-02-13T22:26:46.345Z,17.87
2023-02-13T22:29:18.808Z,16.13
2023-02-13T22:31:48.559Z,16.20
2023-02-13T22:34:18.179Z,16.70
2023-02-13T22:36:47.442Z,14.07
2023-02-13T22:41:58.477Z,14.40
2023-02-13T22:44:25.609Z,13.80
2023-02-13T22:46:52.942Z,14.90
2023-02-13T22:49:19.469Z,14.73
2023-02-13T22:51:46.487Z,14.20
2023-02-13T22:54:14.595Z,14.83
2023-02-13T22:56:47.863Z,13.73
2023-02-13T22:59:14.514Z,13.17
2023-02-13T23:01:45.505Z,13.50
2023-02-13T23:04:12.918Z,12.43
2023-02-13T23:06:39.790Z,13.13
2023-02-13T23:09:08.432Z,12.70
2023-02-13T23:11:56.282Z,14.30
2023-02-13T23:14:24.778Z,14.13
2023-02-13T23:17:10.041Z,13.03
2023-02-13T23:19:39.996Z,14.40
2023-02-13T23:22:08.349Z,14.23
2023-02-13T23:24:35.129Z,18.30
2023-02-13T23:27:03.015Z,18.07
2023-02-13T23:29:30.309Z,16.30
2023-02-13T23:31:57.686Z,14.83
2023-02-13T23:34:24.782Z,13.60
2023-02-13T23:36:51.438Z,15.03
2023-02-13T23:39:20.059Z,15.27
2023-02-13T23:41:46.587Z,14.40
2023-02-13T23:44:13.207Z,20.00
2023-02-13T23:46:41.605Z,15.37
2023-02-13T23:49:08.323Z,15.60
2023-02-13T23:51:34.758Z,14.57
2023-02-13T23:54:03.685Z,12.70
2023-02-13T23:56:30.433Z,18.00
2023-02-13T23:58:58.414Z,14.50
